Latest Weather Observations for Fort Denison

IDN60901

Issued at 3:25 am EST Thursday 18 September 2014 (issued every 10 minutes, with the page automatically refreshed every 10 minutes)

About weather observations | Map of Sydney area stations | Latest observations for Sydney area | Other Formats
Station Details ID: 066022 Name: FORT DENISON Lat: -33.86 Lon: 151.23 Height: 5.0 m
Data from the previous 72 hours. | See also: Recent months for locations in New South Wales
Date/Time
EST
Tmp

°C
App
Tmp
°C
Dew
Point
°C
Rel
Hum
%
Delta-T

°C
Wind Press
QNH
hPa
Press
MSL
hPa
Rain
since
9 am
mm
Dir
 
Spd
km/h
Gust
km/h
Spd
kts
Gust
kts
18/03:00am - - - - - WSW 9 20 5 11 - - -
18/02:30am - - - - - WSW 13 24 7 13 - - -
18/02:00am - - - - - W 15 19 8 10 - - -
18/01:30am - - - - - W 17 20 9 11 - - -
18/01:00am - - - - - W 17 20 9 11 - - -
18/12:30am - - - - - W 19 26 10 14 - - -
18/12:00am - - - - - W 22 30 12 16 - - -
 
Date/Time
EST
Tmp

°C
App
Tmp
°C
Dew
Point
°C
Rel
Hum
%
Delta-T

°C
Wind Press
QNH
hPa
Press
MSL
hPa
Rain
since
9 am
mm
Dir
 
Spd
km/h
Gust
km/h
Spd
kts
Gust
kts
17/11:30pm - - - - - W 22 32 12 17 - - -
17/11:00pm - - - - - W 24 37 13 20 - - -
17/10:30pm - - - - - W 24 35 13 19 - - -
17/10:00pm - - - - - WSW 22 32 12 17 - - -
17/09:30pm - - - - - W 17 26 9 14 - - -
17/09:00pm - - - - - W 13 19 7 10 - - -
17/08:30pm - - - - - W 17 24 9 13 - - -
17/08:00pm - - - - - W 17 24 9 13 - - -
17/07:30pm - - - - - WSW 17 26 9 14 - - -
17/07:00pm - - - - - W 20 30 11 16 - - -
17/06:30pm - - - - - W 26 39 14 21 - - -
17/06:00pm - - - - - W 30 43 16 23 - - -
17/05:30pm - - - - - W 32 52 17 28 - - -
17/05:20pm - - - - - W 32 50 17 27 - - -
17/05:00pm - - - - - W 28 43 15 23 - - -
17/04:30pm - - - - - WSW 32 50 17 27 - - -
17/04:20pm - - - - - WSW 28 46 15 25 - - -
17/04:00pm - - - - - W 35 44 19 24 - - -
17/03:30pm - - - - - WSW 32 46 17 25 - - -
17/03:09pm - - - - - WSW 30 48 16 26 - - -
17/03:00pm - - - - - WSW 30 46 16 25 - - -
17/02:51pm - - - - - W 28 46 15 25 - - -
17/02:30pm - - - - - W 32 46 17 25 - - -
17/02:08pm - - - - - W 28 46 15 25 - - -
17/02:00pm - - - - - W 28 39 15 21 - - -
17/01:30pm - - - - - W 22 33 12 18 - - -
17/01:00pm - - - - - WSW 24 32 13 17 - - -
17/12:30pm - - - - - W 28 43 15 23 - - -
17/12:00pm - - - - - WSW 24 39 13 21 - - -
17/11:30am - - - - - W 32 44 17 24 - - -
17/11:01am - - - - - W 33 52 18 28 - - -
17/11:00am - - - - - W 35 52 19 28 - - -
17/10:45am - - - - - WSW 32 50 17 27 - - -
17/10:30am - - - - - W 28 41 15 22 - - -
17/10:00am - - - - - WSW 35 57 19 31 - - -
17/09:43am - - - - - WSW 37 56 20 30 - - -
17/09:30am - - - - - W 35 50 19 27 - - -
17/09:00am - - - - - W 35 50 19 27 - - -
17/08:30am - - - - - W 32 52 17 28 - - -
17/08:26am - - - - - W 30 50 16 27 - - -
17/08:00am - - - - - W 30 43 16 23 - - -
17/07:30am - - - - - W 22 28 12 15 - - -
17/07:00am - - - - - W 20 32 11 17 - - -
17/06:30am - - - - - W 22 30 12 16 - - -
17/06:00am - - - - - W 15 19 8 10 - - -
17/05:30am - - - - - W 9 13 5 7 - - -
17/05:00am - - - - - W 11 13 6 7 - - -
17/04:30am - - - - - W 7 9 4 5 - - -
17/04:00am - - - - - W 7 9 4 5 - - -
17/03:30am - - - - - WNW 9 15 5 8 - - -
17/03:00am - - - - - WNW 9 13 5 7 - - -
17/02:30am - - - - - W 13 17 7 9 - - -
17/02:00am - - - - - WNW 13 17 7 9 - - -
17/01:30am - - - - - WNW 11 17 6 9 - - -
17/01:00am - - - - - WNW 15 20 8 11 - - -
17/12:30am - - - - - W 20 24 11 13 - - -
17/12:00am - - - - - W 19 24 10 13 - - -
 
Date/Time
EST
Tmp

°C
App
Tmp
°C
Dew
Point
°C
Rel
Hum
%
Delta-T

°C
Wind Press
QNH
hPa
Press
MSL
hPa
Rain
since
9 am
mm
Dir
 
Spd
km/h
Gust
km/h
Spd
kts
Gust
kts
16/11:30pm - - - - - W 20 24 11 13 - - -
16/11:00pm - - - - - WNW 17 20 9 11 - - -
16/10:30pm - - - - - WNW 13 20 7 11 - - -
16/10:00pm - - - - - WNW 13 19 7 10 - - -
16/09:30pm - - - - - W 20 26 11 14 - - -
16/09:00pm - - - - - WNW 28 35 15 19 - - -
16/08:30pm - - - - - WNW 19 26 10 14 - - -
16/08:00pm - - - - - W 24 30 13 16 - - -
16/07:30pm - - - - - W 20 32 11 17 - - -
16/07:00pm - - - - - WNW 26 43 14 23 - - -
16/06:41pm - - - - - WNW 28 46 15 25 - - -
16/06:30pm - - - - - W 26 35 14 19 - - -
16/06:00pm - - - - - W 28 41 15 22 - - -
16/05:36pm - - - - - W 32 50 17 27 - - -
16/05:30pm - - - - - W 33 48 18 26 - - -
16/05:22pm - - - - - W 30 48 16 26 - - -
16/05:00pm - - - - - W 19 30 10 16 - - -
16/04:30pm - - - - - SE 7 11 4 6 - - -
16/04:00pm - - - - - ENE 4 6 2 3 - - -
16/03:30pm - - - - - N 15 24 8 13 - - -
16/02:30pm - - - - - NNE 19 24 10 13 - - -
16/02:00pm - - - - - NE 22 30 12 16 - - -
16/01:30pm - - - - - NE 20 33 11 18 - - -
16/01:00pm - - - - - NE 24 35 13 19 - - -
16/12:30pm - - - - - ENE 26 37 14 20 - - -
16/12:00pm - - - - - NE 26 43 14 23 - - -
16/11:30am - - - - - NE 24 39 13 21 - - -
16/11:00am - - - - - NNE 22 35 12 19 - - -
16/10:30am - - - - - NNE 19 26 10 14 - - -
16/10:00am - - - - - NNE 24 35 13 19 - - -
16/09:31am - - - - - NE 28 54 15 29 - - -
16/09:30am - - - - - NE 26 43 14 23 - - -
16/09:00am - - - - - NE 28 46 15 25 - - -
16/08:30am - - - - - NE 20 37 11 20 - - -
16/08:00am - - - - - N 13 24 7 13 - - -
16/07:30am - - - - - NNW 7 19 4 10 - - -
16/07:00am - - - - - W 6 7 3 4 - - -
16/06:30am - - - - - NW 7 11 4 6 - - -
16/06:00am - - - - - WNW 7 11 4 6 - - -
16/05:30am - - - - - ENE 9 22 5 12 - - -
16/05:00am - - - - - NE 13 20 7 11 - - -
16/04:30am - - - - - NNW 9 11 5 6 - - -
16/04:00am - - - - - NNW 9 19 5 10 - - -
16/03:30am - - - - - NNE 13 19 7 10 - - -
16/03:00am - - - - - NE 13 20 7 11 - - -
16/02:30am - - - - - NE 17 26 9 14 - - -
16/02:00am - - - - - NE 15 24 8 13 - - -
16/01:30am - - - - - NNE 13 20 7 11 - - -
16/01:00am - - - - - ENE 15 19 8 10 - - -
16/12:30am - - - - - NE 6 9 3 5 - - -
16/12:00am - - - - - WNW 19 22 10 12 - - -
 
Date/Time
EST
Tmp

°C
App
Tmp
°C
Dew
Point
°C
Rel
Hum
%
Delta-T

°C
Wind Press
QNH
hPa
Press
MSL
hPa
Rain
since
9 am
mm
Dir
 
Spd
km/h
Gust
km/h
Spd
kts
Gust
kts
15/11:30pm - - - - - NNE 9 15 5 8 - - -
15/11:00pm - - - - - NNE 15 20 8 11 - - -
15/10:30pm - - - - - NE 11 19 6 10 - - -
15/10:00pm - - - - - NE 9 13 5 7 - - -
15/09:30pm - - - - - NE 7 13 4 7 - - -
15/09:00pm - - - - - ENE 13 19 7 10 - - -
15/08:30pm - - - - - ENE 17 22 9 12 - - -
15/08:00pm - - - - - ENE 19 24 10 13 - - -
15/07:30pm - - - - - ENE 17 22 9 12 - - -
15/07:00pm - - - - - ENE 20 26 11 14 - - -
15/06:30pm - - - - - ENE 20 26 11 14 - - -
15/06:00pm - - - - - ENE 20 26 11 14 - - -
15/05:30pm - - - - - ENE 20 28 11 15 - - -
15/05:00pm - - - - - ENE 20 26 11 14 - - -
15/04:30pm - - - - - ENE 22 30 12 16 - - -
15/04:00pm - - - - - ENE 22 26 12 14 - - -
15/03:30pm - - - - - ENE 22 26 12 14 - - -
15/03:00pm - - - - - E 22 28 12 15 - - -
15/02:30pm - - - - - E 19 24 10 13 - - -
15/02:00pm - - - - - E 20 24 11 13 - - -
15/01:30pm - - - - - E 19 24 10 13 - - -
15/01:00pm - - - - - E 17 22 9 12 - - -
15/12:30pm - - - - - E 19 22 10 12 - - -
15/12:00pm - - - - - E 17 20 9 11 - - -
15/11:30am - - - - - E 15 19 8 10 - - -
15/11:00am - - - - - E 15 17 8 9 - - -
15/10:30am - - - - - ESE 6 7 3 4 - - -
15/10:00am - - - - - W 4 4 2 2 - - -
15/09:30am - - - - - WNW 7 9 4 5 - - -
15/09:00am - - - - - WNW 11 13 6 7 - - -
15/08:30am - - - - - W 15 19 8 10 - - -
15/08:00am - - - - - W 15 19 8 10 - - -
15/07:30am - - - - - WNW 11 15 6 8 - - -
15/07:00am - - - - - W 15 19 8 10 - - -
15/06:30am - - - - - WNW 13 17 7 9 - - -
15/06:00am - - - - - WNW 9 13 5 7 - - -
15/05:30am - - - - - W 13 15 7 8 - - -
15/05:00am - - - - - W 13 17 7 9 - - -
15/04:30am - - - - - W 13 19 7 10 - - -
15/04:00am - - - - - W 15 17 8 9 - - -
15/03:30am - - - - - W 13 17 7 9 - - -

Latest Capital City Observations: Canberra | Sydney | Melbourne | Brisbane | Adelaide | Perth | Hobart | Darwin

Other Formats:

Comma delimited format used in spreadsheet applications
http://www.bom.gov.au/fwo/IDN60901/IDN60901.94769.axf

JavaScript Object Notation format (JSON) in row-major order
http://www.bom.gov.au/fwo/IDN60901/IDN60901.94769.json